Flight Track Log - Related Links

Times and Time Zones

All times are in EDT time to prevent confusion due to time zone crossing. See the SKW5510 flight status page for this flight to view local times or setup timezone preferences in your user account.

Time Position Orientation Groundspeed Altitude Reporting Facility
EDT Latitude Longitude Course Direction KTS MPH feet Rate Location/Type
Sat 05:35:36 PM 41.9381 -87.9100 346° North 151 174 1,700  Level Chicago Center
Sat 05:35:58 PM 41.9333 -87.8833 103° East 175 201 2,300 1,829 Climbing Chicago TRACON
Sat 05:36:58 PM 41.9333 -87.8000 90° East 258 297 4,200 2,526 Climbing Chicago TRACON
Sat 05:37:52 PM 42.0000 -87.7833 11° North 288 331 7,100 2,545 Climbing Chicago TRACON
Sat 05:38:00 PM 42.2235 -87.9850 350° North  Level FlightAware Approximate
Sat 05:39:00 PM 42.3108 -88.0069 350° North  Level FlightAware Approximate
Sat 05:39:43 PM 42.1428 -87.7878 359° North 308 354 11,200  Level Chicago Center
Sat 05:40:00 PM 42.3958 -88.0396 340° North  Level FlightAware Approximate
Sat 05:40:44 PM 42.2633 -87.7964 357° North 357 411 13,600  Level Chicago Center
Sat 05:41:00 PM 42.4822 -88.0607 346° North  Level FlightAware Approximate
Sat 05:41:46 PM 42.3669 -87.8050 356° North 368 423 15,700  Level Chicago Center
Sat 05:42:48 PM 42.4689 -87.8519 341° North 392 451 16,000 146 Climbing Chicago Center
Sat 05:43:49 PM 42.5656 -87.9172 334° Northwest 389 448 16,000  Level Chicago Center
Sat 05:44:51 PM 42.6608 -87.9831 333° Northwest 386 444 16,000 48 Level Chicago Center
Sat 05:45:53 PM 42.7508 -88.0647 326° Northwest 386 444 16,100  Climbing Chicago Center
Sat 05:46:55 PM 42.8375 -88.1497 324° Northwest 386 444 16,000 -780 Descending Chicago Center
Sat 05:47:56 PM 42.9392 -88.2525 324° Northwest 387 445 14,500 -976 Descending Chicago Center
Sat 05:48:58 PM 42.9781 -88.3806 293° West 367 422 14,000 -242 Descending Chicago Center
Sat 05:50:00 PM 43.0033 -88.5161 284° West 363 418 14,000  Level Chicago Center
Sat 05:51:02 PM 43.0319 -88.6503 286° West 365 420 14,000 -49 Level Chicago Center
Sat 05:52:03 PM 43.0556 -88.7856 283° West 364 419 13,900 -1,561 Descending Chicago Center
Sat 05:53:05 PM 43.0836 -88.9022 288° West 342 394 10,800 -2,806 Descending Chicago Center
Sat 05:54:07 PM 43.1400 -88.9831 314° West 299 344 8,100 -2,710 Descending Chicago Center
Sat 05:55:09 PM 43.1992 -89.0556 318° Northwest 290 334 5,200 -2,419 Descending Chicago Center
Sat 05:56:11 PM 43.2314 -89.1492 295° West 259 298 3,100 -1,065 Descending Chicago Center
Sat 05:57:13 PM 43.2283 -89.2336 267° West 232 267 3,000 -97 Descending Chicago Center

Login

Don't have an account? Register now (free) for customized features, flight alerts, and more!